Davis Monthan Air Force Base
KDMA : now visible

Aeroporto :











RITROVATECI SU...

 
LOGIN :

Iscrizione | Disclaimer

   EN    FR    IT 

 









Sommario :    VFR   VFR Marginale   IFR   IFR Intensivo   IFR Molto Intensivo
Visibilità : 
Base nubi : 
>= 8 km
>= 3000ft
5 / 8 km
1000 / 3000 ft
1500m / 5 km
500 / 1000 ft
800 / 1500m
200 / 500 ft
< 800m
< 200 ft
Simboli :   Temporali  Nebbia  Neve Forte  Precipitazioni Forti  Vento > 20 kt






- Altitudine del aeroporto : 2704 ft


KDMA - Davis Monthan Air Force Base

ULTIMO METAR :
  • 111758Z AUTO 33008KT 10SM CLR 35/14 A3001 RMK AO2 SLP110 T03470135 10347 20272 58004 FZRANO $

METARs OBSOLETI :
  • 111658Z AUTO 33005KT 10SM CLR 33/15 A3002 RMK AO2 SLP113 T03340149 FZRANO $
  • 111558Z AUTO 00000KT 10SM CLR 32/17 A3003 RMK AO2 SLP118 T03240174 FZRANO $

TAF TAF KDMA
Valido dal 11 a 14 ore il 12 a 20 ore UTC


111405Z 1114/1220 VRB06KT 9999 SCT140 QNH2995INS
BECMG 1120/1121 29009KT 9999 VCSH BKN110 QNH2989INS
TEMPO 1121/1202 29015G20KT
BECMG 1201/1202 VRB06KT 9999 NSW BKN140 QNH2991INS TX39/1122Z TN26/1212Z
FIR KZAB / America del Nord



MetMap, La meteo Aeronautica in un colpo d'occhio ! - Copyright ORBIFLY Dicembre 2007 - Disclaimer

ORBIFLY MET'MAP TEAM :

Programmazione e sviluppo : Alexandra Zaïnal
Concezione : Baudouin d'Aumeries
Aiuto per la programmazione : Marc-Olivier Méhu
Supporto tecnico e logistico : Manuel Goepfert
Aiuto per la traduzione : Arnaldo La Scala

Contatto : metmap@orbifly.com




FONTI E CREDITI :

   NOAA       Earth
Advisory